createdAt,value
2023-04-16T00:02:04.376Z,30.35
2023-04-16T00:04:31.825Z,30.80
2023-04-16T00:06:58.855Z,30.65
2023-04-16T00:09:25.915Z,31.38
2023-04-16T00:11:53.129Z,30.25
2023-04-16T00:14:20.465Z,31.65
2023-04-16T00:16:47.652Z,32.63
2023-04-16T00:19:14.533Z,33.45
2023-04-16T00:21:41.423Z,32.53
2023-04-16T00:24:08.349Z,33.05
2023-04-16T00:26:35.176Z,31.27
2023-04-16T00:29:02.109Z,30.13
2023-04-16T00:31:31.025Z,30.63
2023-04-16T00:33:59.064Z,29.70
2023-04-16T00:36:28.074Z,29.15
2023-04-16T00:38:55.711Z,28.75
2023-04-16T00:41:25.353Z,31.35
2023-04-16T00:43:52.611Z,30.52
2023-04-16T00:46:21.369Z,31.33
2023-04-16T00:48:49.216Z,28.40
2023-04-16T00:51:16.860Z,28.08
2023-04-16T00:53:45.728Z,28.55
2023-04-16T00:56:13.448Z,30.90
2023-04-16T00:58:40.379Z,30.67
2023-04-16T01:01:07.328Z,28.23
2023-04-16T01:03:39.995Z,27.38
2023-04-16T01:06:07.780Z,27.90
2023-04-16T01:08:34.826Z,26.83
2023-04-16T01:11:02.518Z,27.80
2023-04-16T01:13:29.690Z,28.40
2023-04-16T01:15:56.701Z,27.00
2023-04-16T01:18:24.184Z,26.50
2023-04-16T01:20:51.607Z,27.80
2023-04-16T01:23:19.349Z,27.05
2023-04-16T01:25:47.041Z,28.35
2023-04-16T01:28:14.017Z,29.65
2023-04-16T01:30:43.179Z,28.30
2023-04-16T01:33:21.729Z,28.00
2023-04-16T01:35:48.793Z,29.35
2023-04-16T01:38:16.237Z,31.40
2023-04-16T01:40:43.983Z,31.85
2023-04-16T01:43:12.418Z,32.20
2023-04-16T01:45:39.435Z,30.80
2023-04-16T01:48:06.926Z,30.85
2023-04-16T01:50:34.022Z,33.47
2023-04-16T01:53:02.368Z,29.90
2023-04-16T01:55:29.401Z,32.03
2023-04-16T01:57:56.483Z,32.35
2023-04-16T02:00:27.149Z,32.40
2023-04-16T02:02:54.455Z,31.98
2023-04-16T02:05:26.556Z,32.38
2023-04-16T02:07:53.565Z,31.10
2023-04-16T02:10:20.885Z,28.67
2023-04-16T02:12:48.448Z,32.00
2023-04-16T02:15:16.619Z,29.50
2023-04-16T02:17:44.061Z,30.65
2023-04-16T02:20:11.482Z,32.83
2023-04-16T02:22:44.891Z,31.25
2023-04-16T02:25:16.181Z,30.33
2023-04-16T02:27:43.868Z,29.60
2023-04-16T02:30:23.359Z,30.35
2023-04-16T02:32:51.714Z,30.98
2023-04-16T02:35:19.586Z,30.88
2023-04-16T02:37:46.645Z,32.13
2023-04-16T02:40:13.449Z,27.75
2023-04-16T02:42:40.521Z,32.47
2023-04-16T02:45:08.851Z,32.10
2023-04-16T02:47:35.956Z,29.85
2023-04-16T02:50:04.028Z,28.67
2023-04-16T02:52:32.476Z,29.35
2023-04-16T02:55:00.028Z,30.08
2023-04-16T02:57:27.117Z,32.47
2023-04-16T02:59:54.045Z,31.45
2023-04-16T03:02:21.014Z,30.15
2023-04-16T03:04:48.187Z,31.65
2023-04-16T03:07:15.287Z,34.20
2023-04-16T03:09:42.179Z,33.75
2023-04-16T03:12:09.187Z,32.78
2023-04-16T03:14:36.404Z,37.13
2023-04-16T03:17:03.322Z,33.97
2023-04-16T03:19:30.556Z,37.00
2023-04-16T03:21:57.555Z,34.63
2023-04-16T03:24:24.404Z,35.10
2023-04-16T03:26:51.351Z,37.97
2023-04-16T03:29:21.555Z,38.10
2023-04-16T03:31:48.961Z,40.38
2023-04-16T03:34:16.216Z,34.67
2023-04-16T03:36:43.150Z,36.65
2023-04-16T03:39:10.387Z,34.63
2023-04-16T03:41:37.700Z,35.70
2023-04-16T03:44:04.710Z,34.47
2023-04-16T03:46:35.813Z,34.28
2023-04-16T03:49:02.809Z,32.55
2023-04-16T03:51:29.817Z,33.67
2023-04-16T03:53:57.310Z,31.42
2023-04-16T03:56:25.981Z,32.78
2023-04-16T03:58:53.637Z,32.70
2023-04-16T04:01:20.682Z,31.75
2023-04-16T04:03:47.733Z,30.95
2023-04-16T04:06:15.894Z,33.05
2023-04-16T04:08:43.030Z,33.83
2023-04-16T04:11:10.431Z,34.70
2023-04-16T04:13:39.203Z,31.70
2023-04-16T04:16:06.412Z,32.33
2023-04-16T04:18:33.526Z,33.70
2023-04-16T04:21:00.525Z,31.95
2023-04-16T04:23:30.258Z,32.13
2023-04-16T04:25:57.219Z,29.35
2023-04-16T04:28:24.806Z,31.35
2023-04-16T04:30:51.754Z,28.98
2023-04-16T04:33:19.087Z,29.88
2023-04-16T04:35:47.667Z,29.45
2023-04-16T04:38:16.239Z,29.80
2023-04-16T04:40:43.237Z,28.27
2023-04-16T04:43:10.158Z,29.10
2023-04-16T04:45:37.196Z,28.20
2023-04-16T04:48:05.456Z,25.88
2023-04-16T04:50:32.667Z,28.13
2023-04-16T04:52:59.456Z,29.17
2023-04-16T04:55:27.036Z,29.45
2023-04-16T04:57:53.812Z,28.23
2023-04-16T05:00:21.481Z,29.70
2023-04-16T05:02:53.841Z,27.85
2023-04-16T05:05:21.077Z,27.15
2023-04-16T05:07:47.830Z,26.92
2023-04-16T05:10:14.819Z,28.35
2023-04-16T05:12:41.724Z,26.00
2023-04-16T05:15:09.112Z,26.98
2023-04-16T05:17:35.988Z,26.33
2023-04-16T05:20:02.927Z,26.98
2023-04-16T05:22:29.774Z,31.92
2023-04-16T05:24:56.656Z,27.48
2023-04-16T05:27:23.587Z,27.20
2023-04-16T05:29:50.491Z,26.65
2023-04-16T05:32:17.428Z,24.60
2023-04-16T05:34:44.251Z,25.38
2023-04-16T05:37:11.222Z,26.80
2023-04-16T05:39:38.054Z,25.52
2023-04-16T05:42:04.885Z,25.30
2023-04-16T05:44:31.894Z,23.80
2023-04-16T05:46:58.762Z,24.67
2023-04-16T05:49:25.693Z,23.83
2023-04-16T05:51:52.493Z,24.58
2023-04-16T05:54:19.399Z,22.88
2023-04-16T05:56:46.226Z,24.88
2023-04-16T05:59:13.127Z,26.17
2023-04-16T06:01:41.299Z,23.65
2023-04-16T06:04:08.269Z,22.27
2023-04-16T06:06:37.555Z,23.80
2023-04-16T06:09:04.547Z,23.90
2023-04-16T06:11:31.435Z,21.92
2023-04-16T06:13:58.313Z,22.88
2023-04-16T06:16:25.586Z,21.58
2023-04-16T06:18:52.501Z,22.25
2023-04-16T06:21:19.418Z,24.25
2023-04-16T06:23:46.276Z,22.70
2023-04-16T06:26:13.041Z,22.85
2023-04-16T06:28:39.834Z,21.85
2023-04-16T06:31:06.739Z,22.85
2023-04-16T06:33:33.579Z,21.42
2023-04-16T06:36:00.418Z,21.98
2023-04-16T06:38:27.422Z,19.38
2023-04-16T06:40:54.361Z,18.60
2023-04-16T06:43:21.854Z,17.33
2023-04-16T06:45:48.694Z,19.77
2023-04-16T06:48:15.695Z,18.75
2023-04-16T06:50:42.605Z,17.73
2023-04-16T06:53:09.521Z,18.92
2023-04-16T06:55:36.386Z,18.50
2023-04-16T06:58:03.862Z,18.73
2023-04-16T07:00:30.739Z,17.75
2023-04-16T07:02:58.692Z,18.13
2023-04-16T07:05:26.351Z,17.20
2023-04-16T07:07:53.172Z,16.75
2023-04-16T07:10:19.988Z,16.83
2023-04-16T07:12:46.807Z,15.93
2023-04-16T07:15:13.743Z,16.15
2023-04-16T07:17:40.693Z,17.30
2023-04-16T07:20:08.332Z,16.23
2023-04-16T07:22:35.137Z,16.70
2023-04-16T07:25:01.986Z,17.08
2023-04-16T07:27:28.784Z,16.10
2023-04-16T07:29:55.980Z,17.50
2023-04-16T07:32:23.054Z,17.20
2023-04-16T07:34:49.889Z,17.60
2023-04-16T07:37:16.702Z,16.58
2023-04-16T07:39:43.530Z,17.02
2023-04-16T07:42:10.782Z,15.68
2023-04-16T07:44:37.663Z,16.52
2023-04-16T07:47:05.766Z,14.63
2023-04-16T07:49:32.866Z,15.85
2023-04-16T07:51:59.682Z,15.48
2023-04-16T07:54:28.490Z,15.38
2023-04-16T07:56:56.120Z,15.88
2023-04-16T07:59:24.306Z,17.05
2023-04-16T08:01:54.204Z,15.30
2023-04-16T08:04:25.620Z,15.35
2023-04-16T08:06:52.916Z,15.82
2023-04-16T08:09:21.096Z,13.30
2023-04-16T08:11:49.439Z,16.00
2023-04-16T08:14:17.618Z,15.10
2023-04-16T08:16:44.716Z,13.75
2023-04-16T08:19:11.786Z,13.77
2023-04-16T08:21:39.049Z,13.93
2023-04-16T08:24:06.276Z,14.05
2023-04-16T08:26:33.116Z,14.20
2023-04-16T08:28:59.963Z,15.55
2023-04-16T08:31:27.025Z,15.85
2023-04-16T08:33:53.912Z,14.00
2023-04-16T08:36:21.051Z,14.68
2023-04-16T08:38:47.837Z,13.40
2023-04-16T08:41:15.219Z,14.90
2023-04-16T08:43:48.766Z,13.10
2023-04-16T08:46:17.961Z,13.98
2023-04-16T08:48:49.625Z,14.50
2023-04-16T08:51:18.637Z,14.00
2023-04-16T08:54:05.794Z,13.45
2023-04-16T08:56:36.916Z,13.45
2023-04-16T08:59:07.294Z,13.88
2023-04-16T09:01:35.635Z,13.98
2023-04-16T09:04:03.551Z,13.32
2023-04-16T09:06:31.761Z,13.75
2023-04-16T09:08:59.727Z,13.88
2023-04-16T09:11:26.842Z,14.85
2023-04-16T09:13:54.035Z,14.02
2023-04-16T09:16:21.683Z,14.52
2023-04-16T09:18:48.586Z,14.48
2023-04-16T09:21:15.604Z,13.65
2023-04-16T09:23:42.534Z,14.32
2023-04-16T09:26:09.501Z,14.18
2023-04-16T09:28:47.119Z,14.43
2023-04-16T09:31:13.963Z,14.70
2023-04-16T09:33:41.788Z,14.43
2023-04-16T09:36:09.273Z,13.48
2023-04-16T09:38:50.166Z,14.82
2023-04-16T09:41:17.438Z,13.88
2023-04-16T09:43:59.247Z,13.65
2023-04-16T09:46:36.717Z,15.88
2023-04-16T09:49:16.971Z,14.48
2023-04-16T09:51:48.258Z,15.98
2023-04-16T09:54:16.063Z,14.00
2023-04-16T09:56:44.756Z,15.07
2023-04-16T09:59:21.718Z,15.38
2023-04-16T10:02:14.343Z,15.20
2023-04-16T10:04:51.150Z,14.55
2023-04-16T10:07:19.312Z,14.68
2023-04-16T10:09:48.736Z,14.73
2023-04-16T10:12:16.368Z,13.80
2023-04-16T10:14:43.411Z,14.50
2023-04-16T10:17:10.514Z,14.80
2023-04-16T10:19:37.917Z,14.35
2023-04-16T10:22:05.680Z,13.40
2023-04-16T10:24:34.548Z,13.73
2023-04-16T10:27:01.596Z,14.48
2023-04-16T10:29:30.248Z,13.55
2023-04-16T10:31:57.950Z,13.98
2023-04-16T10:34:26.093Z,15.73
2023-04-16T10:36:54.283Z,13.35
2023-04-16T10:39:24.007Z,14.35
2023-04-16T10:44:19.718Z,13.98
2023-04-16T10:46:49.985Z,14.13
2023-04-16T10:49:19.345Z,14.40
2023-04-16T10:52:00.792Z,14.32
2023-04-16T10:54:32.594Z,13.02
2023-04-16T10:57:04.533Z,13.73
2023-04-16T10:59:35.057Z,13.60
2023-04-16T11:02:08.080Z,13.77
2023-04-16T11:04:37.648Z,12.70
2023-04-16T11:07:07.030Z,14.27
2023-04-16T11:09:52.400Z,13.68
2023-04-16T11:12:22.485Z,14.77
2023-04-16T11:14:55.132Z,14.25
2023-04-16T11:17:22.420Z,13.10
2023-04-16T11:19:49.486Z,14.18
2023-04-16T11:22:18.119Z,13.80
2023-04-16T11:24:46.550Z,12.35
2023-04-16T11:27:14.744Z,13.07
2023-04-16T11:29:42.412Z,12.70
2023-04-16T11:32:09.245Z,11.75
2023-04-16T11:34:45.023Z,11.55
2023-04-16T11:37:11.957Z,12.73
2023-04-16T11:39:49.880Z,12.80
2023-04-16T11:42:23.261Z,12.20
2023-04-16T11:44:55.210Z,11.52
2023-04-16T11:47:24.196Z,12.25
2023-04-16T11:49:51.661Z,11.93
2023-04-16T11:52:33.797Z,11.98
2023-04-16T11:55:00.645Z,11.70
2023-04-16T11:57:31.612Z,11.43
2023-04-16T12:00:01.337Z,11.98
2023-04-16T12:02:50.079Z,11.20
2023-04-16T12:05:35.183Z,11.52
2023-04-16T12:08:04.398Z,11.82
2023-04-16T12:10:35.315Z,13.95
2023-04-16T12:13:15.618Z,10.85
2023-04-16T12:15:57.325Z,11.60
2023-04-16T12:18:28.938Z,11.55
2023-04-16T12:20:55.805Z,12.05
2023-04-16T12:23:27.682Z,9.95
2023-04-16T12:25:55.558Z,10.43
2023-04-16T12:28:34.290Z,10.20
2023-04-16T12:31:02.064Z,10.27
2023-04-16T12:33:29.604Z,10.25
2023-04-16T12:35:56.934Z,9.73
2023-04-16T12:38:24.629Z,10.10
2023-04-16T12:40:52.170Z,9.63
2023-04-16T12:43:19.993Z,9.93
2023-04-16T12:45:46.964Z,10.38
2023-04-16T12:48:13.841Z,9.93
2023-04-16T12:50:40.843Z,9.43
2023-04-16T12:53:07.789Z,10.02
2023-04-16T12:55:34.650Z,10.18
2023-04-16T12:58:01.880Z,10.18
2023-04-16T13:00:28.747Z,10.75
2023-04-16T13:02:56.347Z,10.68
2023-04-16T13:05:23.307Z,12.77
2023-04-16T13:07:50.139Z,12.30
2023-04-16T13:10:17.616Z,11.82
2023-04-16T13:12:44.551Z,11.70
2023-04-16T13:15:11.758Z,11.75
2023-04-16T13:17:38.645Z,11.65
2023-04-16T13:20:06.064Z,12.30
2023-04-16T13:22:33.550Z,11.98
2023-04-16T13:25:00.597Z,13.05
2023-04-16T13:27:27.494Z,11.15
2023-04-16T13:29:54.405Z,12.52
2023-04-16T13:32:21.431Z,12.60
2023-04-16T13:34:48.329Z,12.00
2023-04-16T13:37:15.199Z,12.25
2023-04-16T13:39:42.034Z,12.32
2023-04-16T13:42:08.834Z,13.57
2023-04-16T13:44:35.756Z,13.32
2023-04-16T13:47:02.720Z,12.15
2023-04-16T13:49:29.868Z,12.98
2023-04-16T13:51:56.765Z,12.45
2023-04-16T13:54:23.611Z,11.85
2023-04-16T13:56:51.372Z,12.18
2023-04-16T13:59:18.694Z,13.32
2023-04-16T14:01:45.693Z,13.80
2023-04-16T14:04:12.652Z,13.18
2023-04-16T14:06:39.466Z,12.43
2023-04-16T14:09:06.328Z,12.98
2023-04-16T14:11:33.375Z,12.70
2023-04-16T14:14:00.289Z,12.75
2023-04-16T14:16:27.763Z,14.27
2023-04-16T14:18:54.718Z,13.43
2023-04-16T14:21:21.637Z,14.40
2023-04-16T14:23:48.503Z,13.55
2023-04-16T14:26:15.802Z,15.07
2023-04-16T14:28:42.669Z,15.45
2023-04-16T14:31:09.623Z,12.35
2023-04-16T14:33:37.103Z,13.15
2023-04-16T14:36:04.398Z,12.10
2023-04-16T14:38:31.473Z,13.38
2023-04-16T14:40:58.576Z,12.65
2023-04-16T14:43:25.411Z,12.10
2023-04-16T14:45:52.912Z,12.45
2023-04-16T14:48:19.850Z,14.07
2023-04-16T14:50:46.790Z,12.20
2023-04-16T14:53:14.034Z,12.15
2023-04-16T14:55:41.048Z,12.73
2023-04-16T14:58:08.013Z,12.38
2023-04-16T15:00:35.783Z,12.85
2023-04-16T15:03:02.856Z,11.38
2023-04-16T15:05:31.714Z,11.20
2023-04-16T15:07:58.606Z,12.48
2023-04-16T15:10:25.525Z,11.18
2023-04-16T15:12:52.384Z,11.88
2023-04-16T15:15:19.284Z,12.90
2023-04-16T15:17:46.195Z,10.93
2023-04-16T15:20:13.667Z,11.27
2023-04-16T15:22:40.776Z,11.25
2023-04-16T15:25:08.134Z,10.95
2023-04-16T15:27:35.092Z,10.95
2023-04-16T15:30:02.128Z,10.55
2023-04-16T15:32:29.079Z,11.90
2023-04-16T15:34:56.330Z,11.13
2023-04-16T15:37:24.098Z,10.77
2023-04-16T15:39:51.042Z,10.75
2023-04-16T15:42:17.925Z,10.57
2023-04-16T15:44:44.878Z,11.40
2023-04-16T15:47:11.744Z,11.45
2023-04-16T15:49:38.684Z,11.52
2023-04-16T15:52:05.886Z,11.50
2023-04-16T15:54:32.811Z,12.18
2023-04-16T15:56:59.672Z,12.15
2023-04-16T15:59:27.090Z,12.05
2023-04-16T16:01:54.083Z,12.55
2023-04-16T16:04:26.521Z,11.80
2023-04-16T16:06:54.116Z,15.73
2023-04-16T16:09:26.015Z,11.65
2023-04-16T16:11:54.550Z,10.93
2023-04-16T16:14:22.476Z,10.43
2023-04-16T16:16:49.429Z,11.35
2023-04-16T16:19:16.739Z,11.52
2023-04-16T16:21:43.709Z,11.30
2023-04-16T16:24:10.491Z,11.05
2023-04-16T16:26:37.764Z,11.10
2023-04-16T16:29:05.824Z,10.90
2023-04-16T16:31:32.714Z,12.55
2023-04-16T16:33:59.601Z,11.15
2023-04-16T16:36:26.791Z,11.48
2023-04-16T16:38:53.674Z,11.80
2023-04-16T16:41:20.793Z,12.82
2023-04-16T16:43:47.662Z,12.80
2023-04-16T16:46:14.603Z,13.02
2023-04-16T16:48:41.439Z,12.85
2023-04-16T16:51:11.534Z,11.82
2023-04-16T16:53:38.435Z,11.95
2023-04-16T16:56:05.558Z,11.90
2023-04-16T16:58:32.348Z,12.02
2023-04-16T17:00:59.357Z,12.73
2023-04-16T17:03:26.373Z,11.20
2023-04-16T17:05:53.282Z,12.63
2023-04-16T17:08:20.138Z,11.05
2023-04-16T17:10:46.989Z,12.15
2023-04-16T17:13:15.382Z,11.50
2023-04-16T17:15:42.183Z,11.60
2023-04-16T17:18:09.041Z,12.07
2023-04-16T17:20:35.951Z,10.80
2023-04-16T17:23:03.244Z,11.10
2023-04-16T17:25:30.301Z,11.13
2023-04-16T17:27:57.215Z,12.23
2023-04-16T17:30:26.114Z,12.90
2023-04-16T17:32:55.988Z,11.85
2023-04-16T17:35:23.071Z,12.10
2023-04-16T17:37:49.911Z,12.10
2023-04-16T17:40:18.424Z,11.07
2023-04-16T17:42:45.760Z,12.32
2023-04-16T17:45:12.912Z,12.90
2023-04-16T17:47:39.789Z,13.45
2023-04-16T17:50:07.741Z,11.98
2023-04-16T17:52:34.566Z,11.15
2023-04-16T17:55:01.774Z,13.40
2023-04-16T17:57:29.060Z,12.93
2023-04-16T17:59:56.556Z,13.45
2023-04-16T18:02:23.731Z,13.30
2023-04-16T18:04:51.623Z,12.63
2023-04-16T18:07:18.577Z,13.70
2023-04-16T18:09:45.492Z,16.73
2023-04-16T18:12:12.346Z,13.15
2023-04-16T18:14:40.820Z,14.13
2023-04-16T18:17:07.694Z,14.38
2023-04-16T18:19:35.758Z,14.10
2023-04-16T18:22:02.878Z,14.65
2023-04-16T18:24:29.899Z,13.60
2023-04-16T18:26:56.985Z,14.18
2023-04-16T18:29:25.256Z,14.50
2023-04-16T18:31:52.549Z,14.50
2023-04-16T18:34:19.623Z,14.60
2023-04-16T18:36:46.939Z,13.45
2023-04-16T18:39:13.882Z,14.43
2023-04-16T18:41:41.847Z,15.30
2023-04-16T18:44:10.897Z,14.98
2023-04-16T18:46:37.826Z,15.93
2023-04-16T18:49:04.729Z,14.40
2023-04-16T18:51:31.871Z,14.73
2023-04-16T18:53:58.811Z,15.32
2023-04-16T18:56:25.745Z,16.13
2023-04-16T18:58:52.667Z,16.00
2023-04-16T19:01:19.595Z,15.80
2023-04-16T19:03:46.647Z,15.80
2023-04-16T19:06:13.528Z,16.73
2023-04-16T19:08:40.478Z,15.57
2023-04-16T19:11:07.309Z,15.65
2023-04-16T19:13:34.295Z,16.58
2023-04-16T19:16:02.401Z,14.93
2023-04-16T19:18:29.321Z,16.35
2023-04-16T19:21:02.281Z,16.77
2023-04-16T19:23:29.612Z,17.27
2023-04-16T19:25:57.212Z,16.42
2023-04-16T19:28:24.988Z,17.70
2023-04-16T19:30:52.818Z,16.75
2023-04-16T19:33:20.197Z,15.45
2023-04-16T19:35:47.528Z,15.95
2023-04-16T19:38:14.365Z,16.55
2023-04-16T19:40:44.562Z,16.85
2023-04-16T19:43:11.582Z,17.02
2023-04-16T19:45:46.353Z,16.02
2023-04-16T19:48:13.225Z,16.95
2023-04-16T19:50:44.055Z,16.52
2023-04-16T19:53:11.762Z,16.58
2023-04-16T19:55:42.139Z,16.60
2023-04-16T19:58:09.729Z,18.20
2023-04-16T20:00:38.872Z,16.67
2023-04-16T20:03:06.487Z,17.88
2023-04-16T20:05:33.736Z,17.17
2023-04-16T20:08:00.709Z,17.55
2023-04-16T20:10:28.147Z,16.77
2023-04-16T20:12:54.994Z,16.63
2023-04-16T20:15:21.887Z,19.70
2023-04-16T20:17:48.764Z,18.13
2023-04-16T20:20:16.592Z,17.35
2023-04-16T20:22:43.886Z,18.63
2023-04-16T20:25:10.920Z,18.00
2023-04-16T20:27:37.879Z,17.98
2023-04-16T20:30:06.455Z,19.25
2023-04-16T20:32:33.458Z,18.35
2023-04-16T20:35:00.577Z,20.08
2023-04-16T20:37:29.340Z,19.65
2023-04-16T20:39:56.574Z,19.67
2023-04-16T20:42:26.514Z,20.02
2023-04-16T20:44:56.785Z,18.10
2023-04-16T20:47:23.978Z,20.15
2023-04-16T20:49:53.118Z,18.92
2023-04-16T20:52:20.341Z,19.23
2023-04-16T20:54:48.220Z,20.30
2023-04-16T20:57:15.207Z,20.40
2023-04-16T20:59:42.460Z,21.25
2023-04-16T21:02:09.568Z,19.65
2023-04-16T21:04:36.548Z,19.75
2023-04-16T21:07:04.414Z,19.95
2023-04-16T21:09:31.790Z,18.35
2023-04-16T21:11:58.739Z,18.48
2023-04-16T21:14:25.618Z,18.60
2023-04-16T21:16:52.505Z,17.63
2023-04-16T21:19:19.485Z,17.95
2023-04-16T21:21:46.814Z,17.13
2023-04-16T21:24:13.837Z,19.08
2023-04-16T21:26:40.932Z,16.90
2023-04-16T21:29:07.871Z,17.23
2023-04-16T21:31:34.963Z,18.20
2023-04-16T21:34:02.016Z,18.10
2023-04-16T21:36:29.438Z,18.92
2023-04-16T21:38:56.408Z,19.13
2023-04-16T21:41:27.812Z,18.65
2023-04-16T21:43:54.734Z,17.17
2023-04-16T21:46:23.630Z,18.85
2023-04-16T21:48:51.025Z,18.65
2023-04-16T21:51:18.253Z,18.92
2023-04-16T21:53:45.113Z,18.40
2023-04-16T21:56:12.005Z,17.95
2023-04-16T21:58:38.814Z,18.92
2023-04-16T22:01:06.492Z,17.77
2023-04-16T22:03:34.837Z,18.50
2023-04-16T22:06:02.154Z,19.45
2023-04-16T22:08:29.909Z,19.20
2023-04-16T22:10:58.910Z,17.35
2023-04-16T22:13:30.199Z,18.52
2023-04-16T22:15:57.909Z,18.45
2023-04-16T22:18:25.844Z,17.23
2023-04-16T22:20:56.058Z,18.13
2023-04-16T22:23:26.207Z,18.08
2023-04-16T22:25:55.081Z,17.88
2023-04-16T22:28:22.089Z,21.35
2023-04-16T22:30:48.992Z,18.65
2023-04-16T22:33:16.042Z,18.52
2023-04-16T22:35:42.949Z,20.00
2023-04-16T22:38:10.308Z,20.52
2023-04-16T22:40:37.378Z,21.17
2023-04-16T22:43:04.695Z,19.63
2023-04-16T22:45:31.662Z,19.17
2023-04-16T22:47:58.749Z,20.38
2023-04-16T22:50:25.650Z,21.23
2023-04-16T22:52:52.461Z,21.05
2023-04-16T22:55:19.479Z,20.55
2023-04-16T22:57:47.687Z,20.13
2023-04-16T23:00:18.112Z,18.70
2023-04-16T23:02:45.741Z,19.92
2023-04-16T23:05:12.660Z,20.45
2023-04-16T23:07:39.512Z,21.50
2023-04-16T23:10:08.741Z,21.02
2023-04-16T23:12:37.583Z,19.95
2023-04-16T23:15:06.844Z,22.98
2023-04-16T23:17:34.084Z,21.83
2023-04-16T23:20:01.151Z,23.38
2023-04-16T23:22:28.195Z,22.02
2023-04-16T23:24:55.129Z,20.35
2023-04-16T23:27:22.010Z,22.15
2023-04-16T23:29:48.890Z,21.83
2023-04-16T23:32:15.787Z,21.25
2023-04-16T23:34:42.626Z,23.10
2023-04-16T23:37:09.517Z,24.48
2023-04-16T23:39:36.358Z,23.00
2023-04-16T23:42:03.397Z,21.88
2023-04-16T23:44:30.302Z,21.95
2023-04-16T23:46:57.536Z,21.95
2023-04-16T23:49:24.794Z,21.77
2023-04-16T23:51:51.715Z,23.10
2023-04-16T23:54:18.703Z,21.98
2023-04-16T23:56:45.753Z,22.55
2023-04-16T23:59:12.954Z,24.13
